This is the latest recevied weather packets stored in our database for station/object JA6YCL-13. If no packets are shown the sender has not sent any weather packets the latest 10 day(s).
| Time | Temp. | Humidity | Pressure | Rain* | Wind** | Luminosity | Snow |
|---|---|---|---|---|---|---|---|
| 1777683084 | 25° C | 31% | 1013.1 hPa | 0 mm | - | - | - |
| 1777682231 | 23.89° C | 34% | 1013.2 hPa | 0 mm | - | - | - |
| 1777681461 | 23.89° C | 38% | 1013.3 hPa | 0 mm | - | - | - |
| 1777680686 | 23.33° C | 39% | 1013.4 hPa | 0 mm | - | - | - |
| 1777679830 | 22.22° C | 41% | 1013.4 hPa | 0 mm | - | - | - |
| 1777679016 | 21.67° C | 44% | 1013.5 hPa | 0 mm | - | - | - |
| 1777678226 | 20° C | 46% | 1013.6 hPa | 0 mm | - | - | - |
| 1777677416 | 19.44° C | 48% | 1013.7 hPa | 0 mm | - | - | - |
| 1777676571 | 19.44° C | 47% | 1013.7 hPa | 0 mm | - | - | - |
| 1777675671 | 18.89° C | 48% | 1013.8 hPa | 0 mm | - | - | - |
| 1777674826 | 16.67° C | 56% | 1013.9 hPa | 0 mm | - | - | - |
| 1777674093 | 16.67° C | 59% | 1013.8 hPa | 0 mm | - | - | - |
| 1777673369 | 17.78° C | 50% | 1013.6 hPa | 0 mm | - | - | - |
| 1777672636 | 16.67° C | 57% | 1013.7 hPa | 0 mm | - | - | - |
| 1777671897 | 15° C | 60% | 1013.5 hPa | 0 mm | - | - | - |
| 1777671113 | 14.44° C | 63% | 1013.3 hPa | 0 mm | - | - | - |
| 1777670303 | 13.89° C | 64% | 1013.3 hPa | 0 mm | - | - | - |
| 1777669566 | 13.33° C | 62% | 1013 hPa | 0 mm | - | - | - |
| 1777668836 | 15° C | 55% | 1012.9 hPa | 0 mm | - | - | - |
| 1777668023 | 14.44° C | 57% | 1012.9 hPa | 0 mm | - | - | - |
| 1777667301 | 14.44° C | 57% | 1012.8 hPa | 0 mm | - | - | - |
| 1777666566 | 14.44° C | 57% | 1012.8 hPa | 0 mm | - | - | - |
| 1777665701 | 15° C | 56% | 1012.8 hPa | 0 mm | - | - | - |
| 1777664846 | 15° C | 56% | 1012.6 hPa | 0 mm | - | - | - |
| 1777663966 | 15.56° C | 53% | 1012.4 hPa | 0 mm | - | - | - |
* Rain latest hour (hover to see other rain measurements)
** Current wind speed in m/s (hover to see current wind gust speed)